Time;durP1;ratioP1;P1;durP2;ratioP2;P2;SDS_P1;SDS_P2;PMS_P1;PMS_P2;Temp;Humidity;BMP_temperature;BMP_pressure;BME280_temperature;BME280_humidity;BME280_pressure;Samples;Min_cycle;Max_cycle;Signal;HPM_P1;HPM_P2
2022/01/16 00:00:17;;;;;;;108.45;51.67;;;;;;;3.20;100.00;102192.75;5072231;28;20399;-58
2022/01/16 00:05:29;;;;;;;107.20;51.95;;;;;;;3.23;100.00;102190.22;5072555;28;20131;-58
2022/01/16 00:07:55;;;;;;;102.20;51.00;;;;;;;3.18;100.00;102177.97;5054694;28;20029;-55
2022/01/16 00:10:22;;;;;;;105.35;52.78;;;;;;;3.17;100.00;102168.38;5054211;28;20028;-55
2022/01/16 00:12:49;;;;;;;112.25;54.55;;;;;;;2.74;100.00;102096.50;5072292;28;20033;-56
2022/01/16 00:15:20;;;;;;;116.47;54.17;;;;;;;3.20;100.00;102210.09;5072019;28;20029;-57
2022/01/16 00:17:54;;;;;;;120.10;54.20;;;;;;;2.74;100.00;102089.53;5071125;28;20111;-57
2022/01/16 00:20:20;;;;;;;123.72;56.60;;;;;;;2.83;100.00;102092.31;5072270;28;20032;-54
2022/01/16 00:22:47;;;;;;;137.60;59.20;;;;;;;3.34;100.00;102180.00;5054318;28;20032;-60
2022/01/16 00:25:13;;;;;;;119.88;57.25;;;;;;;3.30;100.00;102157.34;5072186;28;20033;-55
2022/01/16 00:27:38;;;;;;;135.55;61.20;;;;;;;3.33;100.00;102163.50;5071889;28;20033;-58
2022/01/16 00:30:04;;;;;;;134.77;59.17;;;;;;;3.22;100.00;102156.34;5071914;28;20037;-52
2022/01/16 00:32:29;;;;;;;127.97;58.72;;;;;;;3.26;100.00;102165.97;5070638;28;20064;-59
2022/01/16 00:34:55;;;;;;;134.57;61.03;;;;;;;3.32;100.00;102172.16;5072089;28;20047;-57
2022/01/16 00:37:20;;;;;;;134.52;58.60;;;;;;;3.31;100.00;102172.13;5072012;28;20480;-55
2022/01/16 00:39:45;;;;;;;141.23;60.38;;;;;;;3.32;100.00;102171.28;5053765;28;20177;-58
2022/01/16 00:42:11;;;;;;;135.20;58.90;;;;;;;3.28;100.00;102166.84;5071832;28;20046;-54
2022/01/16 00:44:36;;;;;;;139.23;58.28;;;;;;;3.28;100.00;102190.28;5071787;28;20107;-54
2022/01/16 00:47:01;;;;;;;131.80;58.25;;;;;;;2.82;100.00;102097.50;5054178;28;20060;-57
2022/01/16 00:49:27;;;;;;;146.18;59.53;;;;;;;3.26;100.00;102171.16;5071710;28;20059;-55
2022/01/16 00:51:52;;;;;;;140.93;58.40;;;;;;;3.25;100.00;102177.22;5071868;28;20098;-56
2022/01/16 00:54:17;;;;;;;138.05;60.78;;;;;;;2.84;100.00;102085.41;5054313;28;20240;-55
2022/01/16 00:56:43;;;;;;;143.55;58.88;;;;;;;3.33;100.00;102152.19;5071792;28;20025;-54
2022/01/16 00:59:08;;;;;;;153.90;61.63;;;;;;;2.93;100.00;102080.38;5071666;28;20036;-58
2022/01/16 01:01:33;;;;;;;150.50;61.05;;;;;;;3.38;100.00;102129.75;5072073;28;20082;-58
2022/01/16 01:03:59;;;;;;;159.32;63.80;;;;;;;3.38;100.00;102116.75;5070765;28;20036;-55
2022/01/16 01:06:24;;;;;;;159.25;62.13;;;;;;;3.30;100.00;102114.00;5071634;28;20032;-55
2022/01/16 01:08:49;;;;;;;162.98;63.33;;;;;;;3.34;100.00;102109.72;5071803;28;20068;-57
2022/01/16 01:11:17;;;;;;;175.27;64.50;;;;;;;3.42;100.00;102124.63;5071540;28;20032;-54
2022/01/16 01:14:25;;;;;;;180.40;64.95;;;;;;;3.51;100.00;102133.41;5071719;28;20032;-54
2022/01/16 01:17:00;;;;;;;178.85;65.38;;;;;;;3.04;100.00;102080.56;5069307;28;20435;-58
2022/01/16 01:19:32;;;;;;;181.32;62.10;;;;;;;3.56;100.00;102142.22;5071434;28;20036;-54
2022/01/16 01:21:57;;;;;;;196.60;66.05;;;;;;;3.46;100.00;102133.34;5071628;28;20020;-53
2022/01/16 01:24:23;;;;;;;180.02;64.75;;;;;;;3.61;100.00;102158.78;5071699;28;20498;-57
2022/01/16 01:27:00;;;;;;;171.65;63.25;;;;;;;3.20;100.00;102072.19;5070644;28;20041;-57
2022/01/16 01:29:28;;;;;;;175.45;64.18;;;;;;;3.19;100.00;102049.59;5070857;28;20036;-55
2022/01/16 01:31:54;;;;;;;171.10;63.63;;;;;;;3.65;100.00;102142.38;5053481;28;20177;-54
2022/01/16 01:34:20;;;;;;;172.18;63.88;;;;;;;3.67;100.00;102148.47;5071228;28;20064;-51
2022/01/16 01:36:48;;;;;;;166.00;62.05;;;;;;;3.66;100.00;102160.59;5053531;28;20109;-55
2022/01/16 01:39:16;;;;;;;172.57;62.95;;;;;;;3.64;100.00;102151.00;5072571;28;20068;-55
2022/01/16 01:41:41;;;;;;;173.63;63.08;;;;;;;3.64;100.00;102105.03;5057350;28;20029;-57
2022/01/16 01:52:18;;;;;;;159.60;61.83;;;;;;;3.19;100.00;101998.44;5075032;28;20059;-55
2022/01/16 01:54:44;;;;;;;175.13;64.47;;;;;;;3.66;100.00;102098.09;5056958;28;20388;-56
2022/01/16 01:57:10;;;;;;;168.75;64.20;;;;;;;3.65;100.00;102126.75;5040201;28;20476;-55
2022/01/16 01:59:39;;;;;;;163.35;63.67;;;;;;;3.68;100.00;102137.19;5074775;28;20464;-56
2022/01/16 02:02:06;;;;;;;172.00;64.97;;;;;;;3.65;100.00;102138.00;5056808;28;20105;-56
2022/01/16 02:04:31;;;;;;;158.82;62.47;;;;;;;3.65;100.00;102156.22;5056597;28;20396;-57
2022/01/16 02:06:57;;;;;;;156.25;64.28;;;;;;;3.66;100.00;102167.53;5074513;28;20033;-57
2022/01/16 02:09:22;;;;;;;149.18;62.78;;;;;;;3.66;100.00;102165.81;5039985;28;20078;-55
2022/01/16 02:11:49;;;;;;;149.73;61.45;;;;;;;3.26;100.00;102100.91;5074178;28;20037;-55
2022/01/16 02:14:34;;;;;;;149.48;61.78;;;;;;;3.66;100.00;102158.00;5073459;28;20025;-55
2022/01/16 02:28:22;;;;;;;144.52;62.60;;;;;;;3.44;100.00;102145.47;5074334;28;20131;-54
2022/01/16 02:36:22;;;;;;;135.60;62.40;;;;;;;3.40;100.00;102165.38;5006808;28;20535;-56
2022/01/16 02:38:48;;;;;;;146.80;62.80;;;;;;;2.80;100.00;102053.25;5073240;28;20036;-55
2022/01/16 02:41:14;;;;;;;123.47;61.00;;;;;;;3.35;100.00;102158.31;5073824;28;20395;-55
2022/01/16 02:43:45;;;;;;;126.45;60.70;;;;;;;3.41;100.00;102161.03;5056090;28;20154;-57
2022/01/16 02:48:39;;;;;;;130.18;61.83;;;;;;;3.39;100.00;102149.72;5073853;28;20040;-53
2022/01/16 02:51:04;;;;;;;128.20;63.65;;;;;;;3.26;100.00;102133.03;5073618;28;20052;-55
2022/01/16 02:53:30;;;;;;;131.18;62.78;;;;;;;3.31;100.00;102139.19;5073441;28;20399;-55
2022/01/16 02:55:55;;;;;;;125.03;61.13;;;;;;;2.78;100.00;102054.97;5073624;28;20024;-55
2022/01/16 02:58:20;;;;;;;132.10;62.85;;;;;;;3.11;100.00;102111.03;5073749;28;20444;-59
2022/01/16 03:00:46;;;;;;;125.15;63.13;;;;;;;2.77;100.00;102061.00;5055600;28;20067;-52
2022/01/16 03:03:11;;;;;;;123.55;61.78;;;;;;;2.65;100.00;102031.31;5073532;28;20033;-57
2022/01/16 03:05:37;;;;;;;117.00;62.40;;;;;;;3.14;100.00;102129.31;5073372;28;20028;-56
2022/01/16 03:08:04;;;;;;;121.40;61.47;;;;;;;3.09;100.00;102117.94;5073317;28;20036;-57
2022/01/16 03:13:15;;;;;;;121.18;60.15;;;;;;;2.67;100.00;102051.28;5073475;28;20115;-58
2022/01/16 03:15:40;;;;;;;116.90;61.17;;;;;;;2.56;100.00;102020.75;5055483;28;20033;-54
2022/01/16 03:23:21;;;;;;;110.78;57.70;;;;;;;3.01;100.00;102096.09;5073344;28;20039;-55
2022/01/16 03:25:48;;;;;;;115.80;59.65;;;;;;;3.01;100.00;102091.78;5055273;28;20115;-56
2022/01/16 03:28:14;;;;;;;114.07;61.60;;;;;;;2.51;100.00;102001.59;5055272;28;20024;-53
2022/01/16 03:30:39;;;;;;;114.10;59.83;;;;;;;3.02;100.00;102096.16;5073201;28;20040;-58
2022/01/16 03:33:05;;;;;;;111.43;60.60;;;;;;;3.00;100.00;102094.38;5072936;28;20063;-54
2022/01/16 03:35:30;;;;;;;109.07;59.80;;;;;;;2.78;100.00;102054.97;5072805;28;20059;-54
2022/01/16 03:37:56;;;;;;;104.57;58.67;;;;;;;2.97;100.00;102091.72;5055144;28;20082;-53
2022/01/16 03:40:22;;;;;;;101.93;58.75;;;;;;;2.94;100.00;102082.13;5054980;28;20039;-55
2022/01/16 03:42:48;;;;;;;105.00;57.08;;;;;;;2.97;100.00;102077.00;5055009;28;20051;-56
2022/01/16 03:45:14;;;;;;;109.60;59.08;;;;;;;3.02;100.00;102074.44;5072653;28;20035;-56
2022/01/16 03:47:39;;;;;;;107.32;58.38;;;;;;;2.55;100.00;102006.88;5072542;28;20024;-52
2022/01/16 03:50:06;;;;;;;108.13;59.03;;;;;;;2.91;100.00;102058.66;5072350;28;20388;-58
2022/01/16 03:52:31;;;;;;;101.60;57.47;;;;;;;2.97;100.00;102087.38;5072296;28;20400;-54
2022/01/16 03:54:56;;;;;;;105.85;56.15;;;;;;;2.97;100.00;102083.91;5054627;28;20029;-54
2022/01/16 03:57:22;;;;;;;98.80;57.65;;;;;;;2.93;100.00;102069.09;5072439;28;20534;-54
2022/01/16 03:59:47;;;;;;;99.50;56.17;;;;;;;2.99;100.00;102079.59;5072352;28;20041;-55
2022/01/16 04:02:13;;;;;;;95.50;56.67;;;;;;;2.49;100.00;101993.75;5071835;28;20163;-54
2022/01/16 04:04:38;;;;;;;102.28;58.72;;;;;;;3.03;100.00;102089.22;5054656;28;20074;-54
2022/01/16 04:07:05;;;;;;;95.38;55.95;;;;;;;2.84;100.00;102049.00;5072543;28;20024;-54
2022/01/16 04:09:31;;;;;;;104.28;57.75;;;;;;;2.97;100.00;102068.31;5054403;28;20039;-52
2022/01/16 04:11:57;;;;;;;102.25;57.40;;;;;;;2.63;100.00;102012.19;5072311;28;20107;-57
2022/01/16 04:17:18;;;;;;;101.88;55.53;;;;;;;2.64;100.00;102014.84;5072454;28;20407;-56
2022/01/16 04:19:44;;;;;;;100.35;56.63;;;;;;;2.83;100.00;102042.91;5054262;28;20035;-54
2022/01/16 04:22:10;;;;;;;96.93;57.10;;;;;;;3.08;100.00;102079.78;5072031;28;20126;-58
2022/01/16 04:24:35;;;;;;;102.93;55.08;;;;;;;2.99;100.00;102071.78;5053959;28;20124;-57
2022/01/16 04:27:01;;;;;;;97.95;54.78;;;;;;;3.05;100.00;102062.38;5072344;28;20056;-51
2022/01/16 04:29:26;;;;;;;94.07;56.30;;;;;;;3.10;100.00;102085.88;5071888;28;20372;-56
2022/01/16 04:31:52;;;;;;;91.18;52.40;;;;;;;3.11;100.00;102069.41;5054134;28;20074;-52
2022/01/16 04:34:17;;;;;;;88.25;53.28;;;;;;;2.82;100.00;102011.69;5054192;28;20471;-55
2022/01/16 04:36:43;;;;;;;89.03;53.08;;;;;;;2.72;100.00;101995.03;5072110;28;20028;-54
2022/01/16 04:39:14;;;;;;;87.13;51.97;;;;;;;3.26;100.00;102085.31;5071923;28;20029;-57
2022/01/16 04:44:23;;;;;;;84.95;48.90;;;;;;;3.28;100.00;102068.84;5072009;28;19965;-55
2022/01/16 04:46:48;;;;;;;84.63;49.72;;;;;;;3.22;100.00;102062.66;5072037;28;20032;-58
2022/01/16 04:49:14;;;;;;;86.07;50.33;;;;;;;3.28;100.00;102054.97;5052616;28;20094;-58
2022/01/16 04:51:39;;;;;;;79.22;48.88;;;;;;;3.31;100.00;102065.44;5051636;28;20151;-53
2022/01/16 04:54:05;;;;;;;84.93;49.60;;;;;;;2.81;100.00;101979.59;5071732;28;20028;-54
2022/01/16 04:56:31;;;;;;;80.95;47.38;;;;;;;3.28;100.00;102052.38;5071623;28;20115;-56
2022/01/16 04:58:56;;;;;;;78.35;47.42;;;;;;;3.27;100.00;102055.81;5050274;28;20472;-52
2022/01/16 05:01:22;;;;;;;74.82;46.30;;;;;;;3.29;100.00;102069.75;5066470;28;20384;-59
2022/01/16 05:03:48;;;;;;;70.93;44.42;;;;;;;3.29;100.00;102059.34;5049500;28;20503;-54
2022/01/16 05:06:14;;;;;;;75.63;45.95;;;;;;;2.83;100.00;101985.69;5071639;28;20032;-52
2022/01/16 05:08:39;;;;;;;72.57;44.45;;;;;;;3.29;100.00;102064.53;5071555;28;20028;-55
2022/01/16 05:11:06;;;;;;;71.78;44.00;;;;;;;2.82;100.00;101981.38;5071590;28;20582;-56
2022/01/16 05:18:42;;;;;;;72.55;42.75;;;;;;;3.39;100.00;102056.00;5075342;28;20044;-57
2022/01/16 05:21:07;;;;;;;70.00;40.65;;;;;;;3.42;100.00;102063.88;5075338;28;20033;-60
2022/01/16 05:23:33;;;;;;;67.57;39.10;;;;;;;3.12;100.00;102006.16;5075114;28;20037;-54
2022/01/16 05:26:00;;;;;;;64.35;38.45;;;;;;;2.91;100.00;101965.03;5075452;28;20089;-54
2022/01/16 05:28:26;;;;;;;47.75;30.90;;;;;;;3.49;100.00;102050.13;5075299;28;20033;-55
2022/01/16 05:30:51;;;;;;;44.17;25.80;;;;;;;3.38;100.00;102036.94;5057547;28;20115;-55
2022/01/16 05:33:16;;;;;;;20.23;11.38;;;;;;;2.96;100.00;101908.78;5075048;28;20476;-57
2022/01/16 05:35:42;;;;;;;16.95;10.43;;;;;;;4.05;100.00;102047.47;5074947;28;20036;-53
2022/01/16 05:38:08;;;;;;;20.27;9.88;;;;;;;4.21;100.00;102039.84;5074891;28;20037;-57
2022/01/16 05:40:33;;;;;;;14.80;7.93;;;;;;;4.38;100.00;102037.44;5075166;28;20043;-54
2022/01/16 05:42:59;;;;;;;16.13;7.13;;;;;;;4.64;100.00;102056.00;5075096;28;20292;-52
2022/01/16 05:45:24;;;;;;;16.35;6.32;;;;;;;4.78;100.00;102044.00;5057242;28;20090;-51
2022/01/16 05:47:50;;;;;;;10.10;5.03;;;;;;;4.49;100.00;101970.69;5074808;28;20050;-56
2022/01/16 05:50:16;;;;;;;7.60;4.55;;;;;;;4.64;100.00;101978.63;5074812;28;20165;-57
2022/01/16 05:52:41;;;;;;;7.03;4.40;;;;;;;5.34;100.00;102073.25;5074679;28;20037;-57
2022/01/16 05:55:07;;;;;;;10.23;4.15;;;;;;;4.98;100.00;102011.13;5074985;28;20087;-51
2022/01/16 05:57:32;;;;;;;7.80;4.15;;;;;;;5.30;100.00;102059.28;5074249;28;20404;-53
2022/01/16 05:59:58;;;;;;;8.00;3.78;;;;;;;5.13;100.00;102023.44;5074650;28;20052;-57
2022/01/16 06:02:25;;;;;;;7.10;3.50;;;;;;;5.67;100.00;102104.81;5074817;28;20550;-53
2022/01/16 06:04:50;;;;;;;7.47;3.25;;;;;;;5.26;100.00;102023.56;5056894;28;20150;-55
2022/01/16 06:07:16;;;;;;;5.00;3.45;;;;;;;5.85;100.00;102123.28;5074474;28;20487;-51
2022/01/16 06:09:41;;;;;;;6.25;3.03;;;;;;;5.86;100.00;102121.56;5056677;28;20131;-54
2022/01/16 06:12:07;;;;;;;5.47;3.00;;;;;;;5.75;100.00;102110.97;5056460;28;20039;-55
2022/01/16 06:14:33;;;;;;;5.80;3.50;;;;;;;5.74;100.00;102116.22;5056509;28;20044;-59
2022/01/16 06:16:58;;;;;;;5.22;2.88;;;;;;;5.74;100.00;102096.19;5074135;28;20387;-59
2022/01/16 06:19:24;;;;;;;7.20;3.25;;;;;;;5.41;100.00;102047.19;5074285;28;20033;-53
2022/01/16 06:21:49;;;;;;;5.05;3.22;;;;;;;5.84;100.00;102131.94;5056370;28;20090;-55
2022/01/16 06:24:14;;;;;;;7.20;3.28;;;;;;;5.78;100.00;102121.44;5074137;28;20471;-54
2022/01/16 06:26:40;;;;;;;3.95;3.30;;;;;;;5.86;100.00;102153.81;5073880;28;20042;-56
2022/01/16 06:29:05;;;;;;;3.88;3.47;;;;;;;5.83;100.00;102139.78;5056324;28;20077;-56
2022/01/16 06:31:31;;;;;;;7.63;3.75;;;;;;;5.78;100.00;102134.53;5055965;28;20433;-56
2022/01/16 06:34:00;;;;;;;4.68;3.80;;;;;;;5.78;100.00;102144.13;5056149;28;20382;-52
2022/01/16 06:36:25;;;;;;;4.72;3.67;;;;;;;5.77;100.00;102134.53;5074027;28;20492;-55
2022/01/16 06:38:53;;;;;;;4.10;3.70;;;;;;;5.81;100.00;102149.38;5073883;28;20040;-58
2022/01/16 06:41:18;;;;;;;6.93;3.83;;;;;;;5.66;100.00;102124.84;5074197;28;20081;-59
2022/01/16 06:43:44;;;;;;;8.45;4.47;;;;;;;5.84;100.00;102149.41;5055707;28;20097;-55
2022/01/16 06:46:09;;;;;;;7.80;5.07;;;;;;;5.79;100.00;102133.66;5073728;28;20044;-52
2022/01/16 06:48:35;;;;;;;8.77;4.65;;;;;;;5.83;100.00;102143.28;5073699;28;20033;-56
2022/01/16 06:51:01;;;;;;;6.97;4.22;;;;;;;5.83;100.00;102155.47;5073486;28;20055;-59
2022/01/16 06:53:26;;;;;;;8.75;4.72;;;;;;;5.89;100.00;102174.72;5073639;28;20041;-53
2022/01/16 06:55:51;;;;;;;11.45;4.30;;;;;;;5.92;100.00;102176.50;5073851;28;20060;-58
2022/01/16 06:58:17;;;;;;;4.75;3.72;;;;;;;5.38;100.00;102086.31;5073658;28;20028;-55
2022/01/16 07:00:43;;;;;;;6.93;4.10;;;;;;;5.89;100.00;102182.56;5055761;28;20048;-59
2022/01/16 07:03:09;;;;;;;5.95;4.13;;;;;;;5.75;100.00;102147.56;5073496;28;20626;-59
2022/01/16 07:05:34;;;;;;;8.10;5.20;;;;;;;5.69;100.00;102130.09;5073245;28;20031;-56
2022/01/16 07:07:59;;;;;;;6.85;4.20;;;;;;;6.06;100.00;102186.19;5055518;28;20036;-56
2022/01/16 07:10:25;;;;;;;6.05;3.78;;;;;;;6.03;100.00;102178.31;5073284;28;20028;-57
2022/01/16 07:12:50;;;;;;;7.60;3.90;;;;;;;5.87;100.00;102158.16;5073468;28;21085;-58
2022/01/16 07:15:16;;;;;;;5.65;4.28;;;;;;;6.04;100.00;102195.72;5055038;28;20032;-54
2022/01/16 07:17:41;;;;;;;7.82;4.15;;;;;;;6.03;100.00;102206.19;5072984;28;20037;-56
2022/01/16 07:20:07;;;;;;;11.63;4.47;;;;;;;6.03;100.00;102195.75;5073006;28;20457;-54
2022/01/16 07:22:32;;;;;;;7.60;4.32;;;;;;;6.00;100.00;102183.53;5054992;28;20033;-56
2022/01/16 07:24:58;;;;;;;10.15;4.25;;;;;;;5.74;100.00;102144.94;5072980;28;20104;-58
2022/01/16 07:27:23;;;;;;;7.80;4.47;;;;;;;6.08;100.00;102205.34;5038710;28;20043;-55
2022/01/16 07:29:48;;;;;;;8.35;4.88;;;;;;;6.22;100.00;102227.25;5072781;28;20044;-56
2022/01/16 07:32:14;;;;;;;6.10;4.88;;;;;;;5.69;100.00;102144.94;5072726;28;20037;-58
2022/01/16 07:34:39;;;;;;;6.85;4.72;;;;;;;5.79;100.00;102144.13;5072694;28;20475;-59
2022/01/16 07:37:04;;;;;;;11.10;4.43;;;;;;;5.48;100.00;102082.06;5072357;28;20028;-51
2022/01/16 07:39:30;;;;;;;10.75;5.10;;;;;;;6.00;100.00;102185.25;5054852;28;20177;-57
2022/01/16 07:41:56;;;;;;;8.80;5.25;;;;;;;6.33;100.00;102243.03;5072807;28;20036;-54
2022/01/16 07:44:21;;;;;;;10.02;5.65;;;;;;;6.33;100.00;102232.56;5054674;28;20595;-57
2022/01/16 07:46:46;;;;;;;12.50;5.63;;;;;;;6.30;100.00;102226.44;5054881;28;20502;-58
2022/01/16 07:49:12;;;;;;;13.35;5.95;;;;;;;6.31;100.00;102231.66;5054632;28;20103;-57
2022/01/16 07:51:37;;;;;;;13.95;6.18;;;;;;;5.96;100.00;102162.56;5038005;28;20056;-55
2022/01/16 07:54:03;;;;;;;8.98;6.68;;;;;;;5.95;100.00;102166.94;5072596;28;20032;-57
2022/01/16 07:56:28;;;;;;;11.77;7.15;;;;;;;6.30;100.00;102235.16;5072430;28;20387;-54
2022/01/16 07:58:53;;;;;;;16.15;7.57;;;;;;;5.86;100.00;102166.88;5054428;28;20058;-56
2022/01/16 08:01:19;;;;;;;10.35;6.95;;;;;;;6.30;100.00;102236.91;5072424;28;20029;-52
2022/01/16 08:03:44;;;;;;;15.43;7.25;;;;;;;5.84;100.00;102152.00;5054304;28;20032;-56
2022/01/16 08:06:10;;;;;;;13.52;7.60;;;;;;;5.68;100.00;102124.88;5072106;28;20111;-56
2022/01/16 08:08:37;;;;;;;16.13;7.32;;;;;;;6.18;100.00;102214.16;5072589;28;20039;-56
2022/01/16 08:11:02;;;;;;;15.55;7.25;;;;;;;5.80;100.00;102140.66;5072329;28;20024;-52
2022/01/16 08:13:28;;;;;;;16.65;7.18;;;;;;;6.29;100.00;102228.19;5054021;28;20033;-55
2022/01/16 08:15:53;;;;;;;16.48;8.32;;;;;;;6.28;100.00;102228.16;5072018;28;20032;-56
2022/01/16 08:18:18;;;;;;;15.68;8.30;;;;;;;5.51;100.00;102118.66;5072185;28;20082;-57
2022/01/16 08:20:44;;;;;;;13.50;8.55;;;;;;;6.31;100.00;102215.97;5054172;28;20036;-54
2022/01/16 08:23:09;;;;;;;21.95;8.55;;;;;;;6.20;100.00;102205.47;5072087;28;20135;-57
2022/01/16 08:25:35;;;;;;;15.52;8.38;;;;;;;5.80;100.00;102121.47;5071961;28;20064;-56
2022/01/16 08:28:00;;;;;;;18.23;8.55;;;;;;;6.05;100.00;102158.28;5071949;28;20539;-57
2022/01/16 08:30:25;;;;;;;15.38;8.38;;;;;;;6.33;100.00;102205.53;5072556;28;20112;-57
2022/01/16 08:32:52;;;;;;;20.77;8.65;;;;;;;5.17;100.00;101992.16;5053937;28;20127;-55
2022/01/16 08:35:18;;;;;;;17.00;8.35;;;;;;;6.34;100.00;102197.69;5071795;28;20121;-54
2022/01/16 08:37:43;;;;;;;17.23;8.27;;;;;;;6.31;100.00;102189.81;5053920;28;20063;-52
2022/01/16 08:40:09;;;;;;;14.63;8.15;;;;;;;5.99;100.00;102133.84;5053821;28;20475;-53
2022/01/16 08:42:39;;;;;;;17.38;8.75;;;;;;;6.35;100.00;102196.84;5071552;28;20043;-53
2022/01/16 08:45:05;;;;;;;16.20;7.55;;;;;;;6.04;100.00;102146.06;5071883;28;20047;-58
2022/01/16 08:47:31;;;;;;;16.85;7.35;;;;;;;6.41;100.00;102212.56;5070492;28;20395;-50
2022/01/16 08:49:58;;;;;;;12.05;7.65;;;;;;;6.43;100.00;102209.94;5075291;28;20033;-56
2022/01/16 08:52:23;;;;;;;14.45;7.88;;;;;;;6.11;100.00;102163.56;5074953;28;20052;-55
2022/01/16 08:54:49;;;;;;;16.33;8.35;;;;;;;5.96;100.00;102134.69;5056607;28;20037;-54
2022/01/16 08:57:14;;;;;;;22.23;10.95;;;;;;;6.35;100.00;102207.31;5075757;28;20375;-55
2022/01/16 08:59:39;;;;;;;27.40;16.10;;;;;;;5.97;100.00;102154.75;5041012;28;20041;-60
2022/01/16 09:02:05;;;;;;;26.90;17.45;;;;;;;6.43;100.00;102244.84;5075569;28;20037;-57
2022/01/16 09:04:30;;;;;;;36.83;20.80;;;;;;;5.92;100.00;102171.25;5074000;28;20032;-55
2022/01/16 09:06:55;;;;;;;38.22;21.58;;;;;;;6.29;100.00;102251.72;5057312;28;20081;-57
2022/01/16 09:09:21;;;;;;;36.75;22.75;;;;;;;5.98;100.00;102200.91;5075484;28;20217;-55
2022/01/16 09:11:47;;;;;;;39.00;24.60;;;;;;;6.08;100.00;102228.00;5075459;28;20028;-56
2022/01/16 09:14:13;;;;;;;37.78;24.40;;;;;;;6.16;100.00;102242.88;5075395;28;20033;-55
2022/01/16 09:16:39;;;;;;;38.40;23.40;;;;;;;5.71;100.00;102176.28;5075309;28;20029;-58
2022/01/16 09:19:04;;;;;;;42.60;25.58;;;;;;;5.80;100.00;102192.91;5075258;28;20396;-58
2022/01/16 09:21:29;;;;;;;43.42;26.27;;;;;;;5.78;100.00;102192.00;5057747;28;20054;-56
2022/01/16 09:23:55;;;;;;;45.50;27.77;;;;;;;5.97;100.00;102225.31;5075230;28;20051;-58
2022/01/16 09:26:20;;;;;;;47.03;26.27;;;;;;;5.73;100.00;102214.59;5075421;28;20051;-55
2022/01/16 09:28:45;;;;;;;46.85;26.90;;;;;;;6.04;100.00;102247.16;5075118;28;20032;-55
2022/01/16 09:31:11;;;;;;;46.83;26.95;;;;;;;6.09;100.00;102264.63;5074524;28;20131;-56
2022/01/16 09:33:36;;;;;;;46.90;28.52;;;;;;;6.06;100.00;102258.50;5074938;28;20032;-57
2022/01/16 09:36:03;;;;;;;52.92;26.67;;;;;;;5.97;100.00;102258.41;5057504;28;20039;-51
2022/01/16 09:38:29;;;;;;;49.75;28.85;;;;;;;6.03;100.00;102274.16;5075137;28;20043;-54
2022/01/16 09:40:54;;;;;;;57.45;33.65;;;;;;;5.97;100.00;102271.47;5056846;28;20052;-57
2022/01/16 09:43:20;;;;;;;53.13;32.30;;;;;;;5.75;100.00;102235.53;5056835;28;20071;-58
2022/01/16 09:45:45;;;;;;;58.50;32.75;;;;;;;5.97;100.00;102290.66;5056912;28;20028;-55
2022/01/16 09:48:10;;;;;;;61.80;33.75;;;;;;;5.93;100.00;102270.56;5056904;28;20115;-56
2022/01/16 09:50:36;;;;;;;61.58;36.05;;;;;;;5.92;100.00;102271.44;5074784;28;20441;-54
2022/01/16 09:53:02;;;;;;;51.78;32.20;;;;;;;5.96;100.00;102306.31;5056892;28;20539;-55
2022/01/16 09:55:27;;;;;;;63.80;34.90;;;;;;;5.03;100.00;102129.47;5074613;28;20483;-53
2022/01/16 09:57:55;;;;;;;69.20;36.65;;;;;;;5.46;100.00;102212.59;5056722;28;20476;-54
2022/01/16 10:00:24;;;;;;;65.95;37.90;;;;;;;5.83;100.00;102299.19;5055743;28;20036;-56
2022/01/16 10:02:50;;;;;;;64.65;36.38;;;;;;;5.29;100.00;102206.31;5074288;28;20034;-55
2022/01/16 10:05:29;;;;;;;66.80;37.88;;;;;;;5.52;100.00;102253.56;5039970;28;20395;-54
2022/01/16 10:07:56;;;;;;;68.90;37.22;;;;;;;5.66;100.00;102285.97;5074592;28;20064;-57
2022/01/16 10:10:37;;;;;;;65.38;38.03;;;;;;;5.62;100.00;102282.44;5056251;28;20040;-55
2022/01/16 10:13:21;;;;;;;76.55;38.47;;;;;;;5.28;100.00;102235.91;5055020;28;20024;-58
2022/01/16 10:15:57;;;;;;;74.50;38.85;;;;;;;5.60;100.00;102298.94;5073959;28;20035;-58
2022/01/16 10:18:36;;;;;;;74.38;39.25;;;;;;;5.09;100.00;102208.72;5071209;28;20411;-56
2022/01/16 10:21:01;;;;;;;75.97;40.58;;;;;;;5.16;100.00;102212.28;5071809;28;20043;-57
2022/01/16 10:23:27;;;;;;;73.38;41.30;;;;;;;5.64;100.00;102313.78;5072114;28;20028;-53
2022/01/16 10:25:52;;;;;;;71.70;40.03;;;;;;;5.41;100.00;102276.09;5053929;28;20028;-54
2022/01/16 10:28:20;;;;;;;79.45;41.20;;;;;;;5.66;100.00;102318.16;5073810;28;20028;-56
2022/01/16 10:30:51;;;;;;;76.80;39.40;;;;;;;5.66;100.00;102330.38;5056382;28;20300;-53
2022/01/16 10:33:19;;;;;;;80.18;38.60;;;;;;;5.32;100.00;102255.09;5074173;28;20054;-53
2022/01/16 10:35:47;;;;;;;76.43;39.97;;;;;;;5.37;100.00;102253.44;5074025;28;20125;-57
2022/01/16 10:38:18;;;;;;;74.97;39.15;;;;;;;5.31;100.00;102240.28;5056153;28;20036;-51
2022/01/16 10:40:50;;;;;;;80.82;39.35;;;;;;;5.38;100.00;102248.19;5073828;28;20068;-57
2022/01/16 10:43:16;;;;;;;75.68;41.08;;;;;;;5.82;100.00;102321.81;5073640;28;20340;-55
2022/01/16 10:45:43;;;;;;;80.30;40.03;;;;;;;5.84;100.00;102309.63;5073779;28;20029;-57
2022/01/16 10:48:10;;;;;;;78.35;40.35;;;;;;;5.89;100.00;102309.75;5055967;28;20395;-56
2022/01/16 10:50:36;;;;;;;72.63;39.88;;;;;;;5.92;100.00;102310.66;5052206;28;20053;-55
2022/01/16 10:53:13;;;;;;;77.03;39.95;;;;;;;5.91;100.00;102294.94;5052549;28;20086;-54
2022/01/16 10:55:41;;;;;;;79.28;41.53;;;;;;;5.92;100.00;102276.69;5053450;28;20431;-56
2022/01/16 10:58:16;;;;;;;74.43;39.88;;;;;;;5.93;100.00;102272.31;5053549;28;20029;-51
2022/01/16 11:00:54;;;;;;;77.15;40.28;;;;;;;5.53;100.00;102208.31;5053373;28;20043;-57
2022/01/16 11:03:21;;;;;;;71.80;38.92;;;;;;;6.16;100.00;102307.38;5053471;28;20036;-56
2022/01/16 11:05:49;;;;;;;81.68;40.40;;;;;;;6.21;100.00;102293.50;5053597;28;20033;-59
2022/01/16 11:08:17;;;;;;;71.78;40.05;;;;;;;6.27;100.00;102292.69;5053584;28;20037;-60
2022/01/16 11:10:46;;;;;;;75.60;40.33;;;;;;;5.91;100.00;102225.25;5053209;28;20479;-56
2022/01/16 11:13:14;;;;;;;77.72;42.03;;;;;;;6.46;100.00;102304.13;5051140;28;20057;-56
2022/01/16 11:15:42;;;;;;;78.13;40.33;;;;;;;6.47;100.00;102298.94;5051783;28;20029;-56
2022/01/16 11:18:08;;;;;;;75.45;41.45;;;;;;;6.30;100.00;102229.06;5053097;28;20044;-53
2022/01/16 11:20:36;;;;;;;76.43;41.05;;;;;;;6.87;100.00;102294.84;5035248;28;20040;-55
2022/01/16 11:23:12;;;;;;;69.78;39.42;;;;;;;6.99;100.00;102284.44;5061799;28;20028;-59
2022/01/16 11:25:39;;;;;;;74.43;38.95;;;;;;;7.12;100.00;102309.78;5061339;28;20033;-56
2022/01/16 11:28:18;;;;;;;74.22;38.83;;;;;;;7.04;100.00;102261.75;5054249;28;20396;-51
2022/01/16 11:30:49;;;;;;;66.28;38.17;;;;;;;7.23;100.00;102247.00;5053067;28;20432;-55
2022/01/16 11:33:17;;;;;;;66.80;38.53;;;;;;;7.70;100.00;102321.41;5052010;28;20502;-57
2022/01/16 11:36:11;;;;;;;63.03;34.10;;;;;;;7.81;100.00;102321.41;5061998;28;20029;-57
2022/01/16 11:38:40;;;;;;;50.03;31.55;;;;;;;7.46;100.00;102255.81;5049258;28;20403;-55
2022/01/16 11:41:15;;;;;;;59.13;33.63;;;;;;;7.78;100.00;102319.69;5037974;28;20395;-53
2022/01/16 11:43:45;;;;;;;49.30;29.42;;;;;;;7.38;100.00;102254.06;5052775;28;20028;-55
2022/01/16 11:46:17;;;;;;;49.35;27.58;;;;;;;7.63;100.00;102295.16;5052778;28;20072;-55
2022/01/16 11:48:51;;;;;;;46.97;25.70;;;;;;;7.72;100.00;102300.44;5058468;28;20176;-56
2022/01/16 11:54:23;;;;;;;41.95;24.63;;;;;;;7.65;100.00;102323.13;5073990;28;20044;-54
2022/01/16 11:56:58;;;;;;;42.65;24.27;;;;;;;7.66;100.00;102337.09;5078661;28;20032;-51
2022/01/16 11:59:30;;;;;;;36.58;20.10;;;;;;;7.50;100.00;102303.88;5054186;28;20028;-54